createdAt,value
2023-04-09T00:03:46.185Z,86.12
2023-04-09T00:07:53.886Z,86.58
2023-04-09T00:12:17.838Z,86.60
2023-04-09T00:16:35.544Z,87.05
2023-04-09T00:21:19.782Z,87.26
2023-04-09T00:25:44.321Z,87.37
2023-04-09T00:30:28.853Z,87.30
2023-04-09T00:34:45.796Z,86.92
2023-04-09T00:38:58.143Z,87.27
2023-04-09T00:43:26.694Z,87.42
2023-04-09T00:47:31.185Z,87.48
2023-04-09T00:51:44.320Z,87.84
2023-04-09T00:55:51.531Z,87.95
2023-04-09T01:00:04.701Z,88.00
2023-04-09T01:04:36.455Z,88.32
2023-04-09T01:09:30.544Z,88.33
2023-04-09T01:13:47.866Z,88.19
2023-04-09T01:18:19.033Z,88.07
2023-04-09T01:22:41.431Z,88.08
2023-04-09T01:27:11.034Z,88.19
2023-04-09T01:31:41.818Z,88.18
2023-04-09T01:35:35.096Z,87.85
2023-04-09T01:40:19.137Z,87.97
2023-04-09T01:44:40.404Z,88.16
2023-04-09T01:49:10.967Z,87.99
2023-04-09T01:53:40.031Z,87.80
2023-04-09T01:58:06.059Z,87.92
2023-04-09T02:02:24.585Z,87.98
2023-04-09T02:11:01.068Z,87.99
2023-04-09T02:15:45.074Z,88.01
2023-04-09T02:20:18.926Z,88.07
2023-04-09T02:24:58.355Z,88.00
2023-04-09T02:29:26.383Z,88.14
2023-04-09T02:33:52.129Z,87.92
2023-04-09T02:38:16.588Z,87.97
2023-04-09T02:42:29.498Z,87.75
2023-04-09T02:47:16.609Z,87.67
2023-04-09T02:51:58.446Z,87.70
2023-04-09T02:56:43.489Z,87.66
2023-04-09T03:01:48.071Z,88.16
2023-04-09T03:05:56.403Z,86.70
2023-04-09T03:09:54.067Z,87.38
2023-04-09T03:14:17.034Z,88.02
2023-04-09T03:18:43.546Z,88.55
2023-04-09T03:23:04.222Z,89.32
2023-04-09T03:27:26.878Z,89.02
2023-04-09T03:31:47.988Z,88.85
2023-04-09T03:35:58.919Z,88.78
2023-04-09T03:40:18.867Z,88.76
2023-04-09T03:44:49.849Z,88.70
2023-04-09T03:49:11.011Z,88.71
2023-04-09T03:53:19.595Z,88.69
2023-04-09T03:57:43.594Z,88.71
2023-04-09T04:02:11.008Z,88.76
2023-04-09T04:06:24.943Z,88.81
2023-04-09T04:10:32.715Z,88.89
2023-04-09T04:14:58.875Z,88.83
2023-04-09T04:19:23.904Z,88.84
2023-04-09T04:23:33.374Z,88.89
2023-04-09T04:27:32.874Z,88.89
2023-04-09T04:31:40.087Z,88.96
2023-04-09T04:35:40.504Z,88.92
2023-04-09T04:40:03.025Z,88.79
2023-04-09T04:44:29.478Z,88.98
2023-04-09T04:48:52.970Z,89.14
2023-04-09T04:52:56.142Z,89.05
2023-04-09T04:57:39.190Z,89.02
2023-04-09T05:01:49.839Z,89.14
2023-04-09T05:06:02.013Z,89.23
2023-04-09T05:10:15.055Z,88.77
2023-04-09T05:14:33.505Z,88.37
2023-04-09T05:18:56.571Z,88.24
2023-04-09T05:23:19.401Z,88.01
2023-04-09T05:27:21.906Z,87.72
2023-04-09T05:31:28.985Z,87.72
2023-04-09T05:35:33.755Z,87.66
2023-04-09T05:39:59.188Z,87.25
2023-04-09T05:44:18.843Z,86.83
2023-04-09T05:48:37.713Z,86.35
2023-04-09T05:52:57.863Z,85.83
2023-04-09T05:57:09.497Z,83.91
2023-04-09T06:01:51.940Z,83.77
2023-04-09T06:05:45.759Z,83.87
2023-04-09T06:10:07.867Z,83.33
2023-04-09T06:14:30.729Z,83.49
2023-04-09T06:18:54.474Z,83.41
2023-04-09T06:23:01.043Z,83.04
2023-04-09T06:27:23.585Z,82.44
2023-04-09T06:31:27.330Z,82.11
2023-04-09T06:35:34.647Z,80.94
2023-04-09T06:40:01.048Z,77.67
2023-04-09T06:44:06.139Z,75.33
2023-04-09T06:48:08.188Z,73.91
2023-04-09T06:52:11.489Z,73.61
2023-04-09T06:56:31.554Z,73.09
2023-04-09T07:00:49.336Z,71.76
2023-04-09T07:04:51.322Z,70.57
2023-04-09T07:08:23.922Z,70.66
2023-04-09T07:12:15.419Z,69.73
2023-04-09T07:15:41.754Z,69.41
2023-04-09T07:19:16.901Z,68.82
2023-04-09T07:23:14.998Z,68.57
2023-04-09T07:27:04.097Z,69.14
2023-04-09T07:30:20.192Z,67.72
2023-04-09T07:33:26.596Z,68.00
2023-04-09T07:36:45.544Z,65.94
2023-04-09T07:40:09.697Z,64.48
2023-04-09T07:43:17.425Z,59.69
2023-04-09T07:46:23.109Z,59.96
2023-04-09T07:49:48.456Z,57.47
2023-04-09T07:53:13.865Z,57.29
2023-04-09T07:56:30.272Z,56.91
2023-04-09T07:59:41.300Z,55.02
2023-04-09T08:03:04.938Z,56.20
2023-04-09T08:06:37.555Z,58.42
2023-04-09T08:09:59.231Z,56.37
2023-04-09T08:13:22.101Z,57.65
2023-04-09T08:16:59.436Z,58.96
2023-04-09T08:20:56.764Z,59.48
2023-04-09T08:24:19.289Z,60.17
2023-04-09T08:27:45.402Z,60.31
2023-04-09T08:31:17.479Z,61.25
2023-04-09T08:34:21.623Z,61.66
2023-04-09T08:37:51.183Z,62.97
2023-04-09T08:41:43.264Z,62.93
2023-04-09T08:45:26.675Z,63.06
2023-04-09T08:49:07.606Z,62.52
2023-04-09T08:52:38.812Z,62.22
2023-04-09T08:56:54.722Z,60.76
2023-04-09T09:00:48.883Z,60.87
2023-04-09T09:04:24.305Z,59.10
2023-04-09T09:07:58.253Z,59.26
2023-04-09T09:12:18.327Z,58.52
2023-04-09T09:15:31.235Z,57.60
2023-04-09T09:19:12.560Z,56.78
2023-04-09T09:23:08.839Z,56.21
2023-04-09T09:26:51.055Z,56.49
2023-04-09T09:30:30.174Z,57.26
2023-04-09T09:34:16.419Z,56.96
2023-04-09T09:38:33.849Z,56.71
2023-04-09T09:42:12.725Z,58.40
2023-04-09T09:45:56.644Z,59.22
2023-04-09T09:49:23.172Z,59.63
2023-04-09T09:52:39.125Z,60.47
2023-04-09T09:56:18.167Z,61.05
2023-04-09T09:59:29.146Z,61.83
2023-04-09T10:03:13.378Z,60.91
2023-04-09T10:06:39.117Z,61.87
2023-04-09T10:10:31.524Z,62.00
2023-04-09T10:14:39.553Z,61.22
2023-04-09T10:18:40.689Z,61.10
2023-04-09T10:22:53.419Z,61.44
2023-04-09T10:27:04.135Z,61.47
2023-04-09T10:31:24.144Z,62.35
2023-04-09T10:35:49.558Z,63.06
2023-04-09T10:40:04.371Z,64.14
2023-04-09T10:44:48.283Z,64.18
2023-04-09T10:48:43.210Z,62.46
2023-04-09T10:52:54.938Z,62.39
2023-04-09T10:57:04.313Z,60.94
2023-04-09T11:00:29.299Z,60.82
2023-04-09T11:04:10.836Z,60.81
2023-04-09T11:08:06.379Z,59.93
2023-04-09T11:12:11.678Z,59.21
2023-04-09T11:16:24.318Z,58.79
2023-04-09T11:20:20.426Z,59.82
2023-04-09T11:23:55.877Z,58.55
2023-04-09T11:27:42.234Z,58.99
2023-04-09T11:31:39.216Z,59.08
2023-04-09T11:35:46.108Z,60.34
2023-04-09T11:39:36.826Z,60.53
2023-04-09T11:44:10.147Z,61.51
2023-04-09T11:48:30.054Z,62.01
2023-04-09T11:52:40.893Z,62.97
2023-04-09T11:56:28.670Z,63.98
2023-04-09T12:00:53.073Z,63.58
2023-04-09T12:05:05.622Z,63.45
2023-04-09T12:08:36.051Z,63.80
2023-04-09T12:12:50.184Z,64.01
2023-04-09T12:16:54.237Z,63.65
2023-04-09T12:21:19.731Z,63.62
2023-04-09T12:25:42.087Z,63.27
2023-04-09T12:29:29.960Z,62.71
2023-04-09T12:33:31.767Z,62.00
2023-04-09T12:36:53.884Z,60.39
2023-04-09T12:41:18.109Z,59.73
2023-04-09T12:45:38.385Z,60.78
2023-04-09T12:49:46.760Z,61.92
2023-04-09T12:53:43.780Z,62.87
2023-04-09T12:57:49.905Z,62.36
2023-04-09T13:01:55.858Z,63.11
2023-04-09T13:05:57.652Z,62.37
2023-04-09T13:10:13.357Z,62.68
2023-04-09T13:14:41.907Z,60.92
2023-04-09T13:18:55.229Z,61.19
2023-04-09T13:22:30.931Z,60.55
2023-04-09T13:26:35.033Z,58.92
2023-04-09T13:30:36.126Z,58.89
2023-04-09T13:34:43.663Z,59.87
2023-04-09T13:38:52.418Z,60.65
2023-04-09T13:43:34.227Z,59.18
2023-04-09T13:47:25.859Z,59.09
2023-04-09T13:51:13.824Z,59.24
2023-04-09T13:55:45.090Z,60.53
2023-04-09T13:59:23.919Z,59.00
2023-04-09T14:03:20.020Z,57.75
2023-04-09T14:06:58.281Z,57.59
2023-04-09T14:10:42.942Z,57.98
2023-04-09T14:14:37.494Z,58.19
2023-04-09T14:18:51.586Z,58.84
2023-04-09T14:22:52.784Z,58.49
2023-04-09T14:26:44.109Z,58.20
2023-04-09T14:38:33.342Z,58.88
2023-04-09T14:42:37.428Z,58.48
2023-04-09T14:46:07.939Z,58.55
2023-04-09T14:49:46.147Z,58.09
2023-04-09T14:53:51.731Z,55.21
2023-04-09T14:57:55.540Z,61.68
2023-04-09T15:02:33.191Z,63.26
2023-04-09T15:06:40.457Z,64.36
2023-04-09T15:10:33.984Z,63.99
2023-04-09T15:14:42.119Z,64.60
2023-04-09T15:18:47.257Z,65.19
2023-04-09T15:23:11.748Z,65.63
2023-04-09T15:26:53.518Z,66.15
2023-04-09T15:30:57.594Z,65.78
2023-04-09T15:34:38.991Z,66.23
2023-04-09T15:38:46.424Z,66.78
2023-04-09T15:42:55.410Z,67.52
2023-04-09T15:47:00.459Z,68.70
2023-04-09T15:51:26.648Z,68.88
2023-04-09T15:55:51.253Z,69.56
2023-04-09T16:00:16.500Z,70.03
2023-04-09T16:04:47.524Z,70.47
2023-04-09T16:08:27.151Z,73.17
2023-04-09T16:12:35.106Z,72.53
2023-04-09T16:16:56.305Z,72.60
2023-04-09T16:21:05.769Z,73.58
2023-04-09T16:25:15.498Z,73.80
2023-04-09T16:29:55.075Z,74.52
2023-04-09T16:34:20.680Z,75.07
2023-04-09T16:39:04.584Z,76.01
2023-04-09T16:43:50.204Z,76.24
2023-04-09T16:47:56.499Z,75.97
2023-04-09T16:52:35.620Z,76.04
2023-04-09T16:57:07.203Z,76.18
2023-04-09T17:01:52.218Z,76.90
2023-04-09T17:06:06.200Z,77.30
2023-04-09T17:10:31.168Z,76.58
2023-04-09T17:14:38.967Z,77.50
2023-04-09T17:18:47.076Z,78.46
2023-04-09T17:23:19.066Z,78.84
2023-04-09T17:28:03.009Z,79.30
2023-04-09T17:32:31.436Z,81.32
2023-04-09T17:43:22.904Z,83.07
2023-04-09T17:47:26.708Z,82.98
2023-04-09T17:51:59.328Z,82.61
2023-04-09T17:56:49.552Z,82.84
2023-04-09T18:01:28.920Z,83.27
2023-04-09T18:11:05.122Z,83.91
2023-04-09T18:15:20.263Z,84.22
2023-04-09T18:19:31.795Z,84.53
2023-04-09T18:23:57.173Z,84.83
2023-04-09T18:28:39.003Z,85.38
2023-04-09T18:33:00.307Z,85.37
2023-04-09T18:41:50.619Z,85.72
2023-04-09T18:46:15.508Z,85.54
2023-04-09T18:50:41.554Z,85.00
2023-04-09T18:55:26.374Z,84.96
2023-04-09T18:59:54.519Z,84.33
2023-04-09T19:04:20.346Z,85.00
2023-04-09T19:08:38.698Z,85.30
2023-04-09T19:12:47.408Z,85.42
2023-04-09T19:17:16.557Z,85.52
2023-04-09T19:21:40.586Z,86.09
2023-04-09T19:25:48.529Z,86.72
2023-04-09T19:30:33.420Z,86.78
2023-04-09T19:34:42.249Z,86.95
2023-04-09T19:38:55.508Z,86.49
2023-04-09T19:43:07.385Z,87.37
2023-04-09T19:47:42.815Z,88.32
2023-04-09T19:51:57.119Z,87.49
2023-04-09T19:56:01.600Z,87.19
2023-04-09T20:00:29.664Z,87.45
2023-04-09T20:04:34.398Z,86.72
2023-04-09T20:08:59.312Z,87.28
2023-04-09T20:13:32.386Z,84.96
2023-04-09T20:17:56.309Z,85.44
2023-04-09T20:22:11.965Z,87.22
2023-04-09T20:26:33.210Z,89.58
2023-04-09T20:30:42.890Z,90.79
2023-04-09T20:35:22.001Z,91.07
2023-04-09T20:39:02.325Z,91.00
2023-04-09T20:43:35.647Z,90.56
2023-04-09T20:47:56.229Z,90.34
2023-04-09T20:52:12.364Z,90.21
2023-04-09T20:56:24.208Z,90.07
2023-04-09T21:00:52.439Z,89.81
2023-04-09T21:05:24.523Z,89.55
2023-04-09T21:09:56.290Z,89.32
2023-04-09T21:14:20.506Z,89.22
2023-04-09T21:19:00.251Z,89.16
2023-04-09T21:23:09.514Z,89.10
2023-04-09T21:27:53.925Z,89.02
2023-04-09T21:32:33.336Z,88.85
2023-04-09T21:43:32.477Z,88.20
2023-04-09T21:48:17.001Z,87.76
2023-04-09T21:52:48.930Z,87.59
2023-04-09T21:57:03.172Z,87.47
2023-04-09T22:01:29.800Z,87.51
2023-04-09T22:05:46.737Z,87.65
2023-04-09T22:09:59.422Z,87.74
2023-04-09T22:14:43.854Z,87.96
2023-04-09T22:18:40.347Z,88.04
2023-04-09T22:23:00.774Z,87.79
2023-04-09T22:27:07.451Z,87.73
2023-04-09T22:31:28.736Z,87.82
2023-04-09T22:36:00.877Z,87.92
2023-04-09T22:40:16.220Z,88.18
2023-04-09T22:44:20.407Z,88.32
2023-04-09T22:48:28.640Z,88.42
2023-04-09T22:52:51.478Z,88.21
2023-04-09T22:57:15.734Z,88.20
2023-04-09T23:01:36.453Z,88.20
2023-04-09T23:05:43.646Z,88.42
2023-04-09T23:13:26.547Z,88.76
2023-04-09T23:17:28.671Z,88.46
2023-04-09T23:21:48.936Z,88.22
2023-04-09T23:25:57.293Z,88.24
2023-04-09T23:30:23.665Z,88.47
2023-04-09T23:35:08.636Z,88.45
2023-04-09T23:39:14.318Z,88.63
2023-04-09T23:43:40.627Z,88.83
2023-04-09T23:48:06.291Z,88.78
2023-04-09T23:52:29.891Z,88.64
2023-04-09T23:56:37.203Z,88.59
